Time;durP1;ratioP1;P1;durP2;ratioP2;P2;SDS_P1;SDS_P2;PMS_P1;PMS_P2;Temp;Humidity;BMP_temperature;BMP_pressure;BME280_temperature;BME280_humidity;BME280_pressure;Samples;Min_cycle;Max_cycle;Signal;HPM_P1;HPM_P2
2022/02/22 00:00:38;;;;;;;5.90;1.40;;;5.90;99.90;;;;;;4975299;28;20089;-76
2022/02/22 04:50:44;;;;;;;5.90;1.27;;;5.10;99.90;;;;;;4933468;29;20058;-78
2022/02/22 04:53:11;;;;;;;6.60;1.83;;;5.10;99.90;;;;;;4936318;29;20075;-76
2022/02/22 04:55:38;;;;;;;5.35;1.48;;;5.00;99.90;;;;;;4936266;29;20473;-80
2022/02/22 04:58:05;;;;;;;7.13;1.55;;;5.00;99.90;;;;;;4936600;29;20497;-79
2022/02/22 05:00:32;;;;;;;7.95;1.60;;;5.00;99.90;;;;;;4935731;29;20095;-77
2022/02/22 05:02:59;;;;;;;5.20;1.40;;;5.10;99.90;;;;;;4937845;29;20075;-79
2022/02/22 05:05:27;;;;;;;5.95;1.30;;;5.00;99.90;;;;;;4931401;29;20047;-77
2022/02/22 05:07:55;;;;;;;6.03;1.50;;;5.00;99.90;;;;;;4935206;29;20058;-78
2022/02/22 05:10:22;;;;;;;6.93;1.58;;;5.10;99.90;;;;;;4935441;29;20056;-79
2022/02/22 05:12:49;;;;;;;6.00;1.40;;;5.10;99.90;;;;;;4935375;29;20058;-77
2022/02/22 05:15:16;;;;;;;5.25;1.40;;;5.10;99.90;;;;;;4935471;29;20128;-75
2022/02/22 05:17:43;;;;;;;5.50;1.48;;;5.00;99.90;;;;;;4934863;29;20507;-77
2022/02/22 05:20:11;;;;;;;5.10;1.30;;;4.90;99.90;;;;;;4934863;29;20047;-78
2022/02/22 05:22:40;;;;;;;6.57;1.25;;;4.90;99.90;;;;;;4935485;29;20048;-80
2022/02/22 05:25:10;;;;;;;5.20;1.40;;;5.00;99.90;;;;;;4935471;29;20056;-79
2022/02/22 05:27:37;;;;;;;5.10;1.48;;;5.00;99.90;;;;;;4935751;29;20062;-80
2022/02/22 05:30:05;;;;;;;4.57;1.30;;;5.00;99.90;;;;;;4936539;29;20067;-76
2022/02/22 05:32:33;;;;;;;8.35;1.60;;;5.00;99.90;;;;;;4937831;29;20410;-80
2022/02/22 05:35:01;;;;;;;4.88;1.40;;;4.80;99.90;;;;;;4939013;29;20470;-80
2022/02/22 05:37:28;;;;;;;6.35;1.52;;;4.90;99.90;;;;;;4938825;29;20059;-80
2022/02/22 05:39:56;;;;;;;6.57;1.40;;;4.90;99.90;;;;;;4940402;29;20054;-79
2022/02/22 05:42:26;;;;;;;5.25;1.30;;;4.80;99.90;;;;;;4939188;29;20402;-76
2022/02/22 05:44:53;;;;;;;6.07;1.50;;;4.80;99.90;;;;;;4940548;29;20150;-77
2022/02/22 05:47:20;;;;;;;12.32;1.70;;;4.70;99.90;;;;;;4941298;29;20079;-78
2022/02/22 05:49:47;;;;;;;6.47;1.52;;;4.80;99.90;;;;;;4943226;29;20062;-78
2022/02/22 05:52:15;;;;;;;6.70;1.40;;;4.80;99.90;;;;;;4942530;29;20482;-77
2022/02/22 05:54:43;;;;;;;5.90;1.95;;;4.70;99.90;;;;;;4943918;29;20058;-78
2022/02/22 05:57:10;;;;;;;7.28;1.60;;;4.80;99.90;;;;;;4942429;29;20122;-78
2022/02/22 05:59:38;;;;;;;7.45;1.92;;;4.80;99.90;;;;;;4939244;29;20479;-79
2022/02/22 06:02:06;;;;;;;5.55;1.92;;;4.80;99.90;;;;;;4937761;29;20052;-80
2022/02/22 06:04:33;;;;;;;6.68;1.80;;;4.80;99.90;;;;;;4938795;29;20050;-77
2022/02/22 06:07:00;;;;;;;6.88;1.67;;;4.70;99.90;;;;;;4939319;29;20048;-80
2022/02/22 06:09:27;;;;;;;8.35;1.85;;;4.70;99.90;;;;;;4940482;29;20052;-80
2022/02/22 06:11:54;;;;;;;6.07;1.70;;;4.70;99.90;;;;;;4939938;29;20138;-78
2022/02/22 06:14:21;;;;;;;6.03;1.40;;;4.70;99.90;;;;;;4940614;29;20050;-79
2022/02/22 06:16:53;;;;;;;6.32;1.60;;;4.60;99.90;;;;;;4939221;29;20048;-80
2022/02/22 06:19:28;;;;;;;7.03;1.70;;;4.70;99.90;;;;;;4940443;29;20044;-79
2022/02/22 06:21:55;;;;;;;;;;;4.70;99.90;;;;;;4939459;29;20055;-78
2022/02/22 06:24:23;;;;;;;9.15;1.50;;;4.70;99.90;;;;;;4938511;29;19923;-78
2022/02/22 06:26:50;;;;;;;5.15;1.50;;;4.70;99.90;;;;;;4939741;29;20055;-80
2022/02/22 06:29:17;;;;;;;6.57;1.40;;;4.60;99.90;;;;;;4939183;29;20052;-80
2022/02/22 06:31:44;;;;;;;5.53;1.52;;;4.70;99.90;;;;;;4938572;29;20135;-79
2022/02/22 06:34:13;;;;;;;6.60;1.95;;;4.70;99.90;;;;;;4937676;29;20048;-79
2022/02/22 06:36:40;;;;;;;7.03;1.73;;;4.60;99.90;;;;;;4937485;29;20058;-80
2022/02/22 06:39:07;;;;;;;9.50;1.90;;;4.60;99.90;;;;;;4937917;29;20056;-80
2022/02/22 06:41:34;;;;;;;6.93;1.73;;;4.70;99.90;;;;;;4938093;29;20052;-79
2022/02/22 06:44:01;;;;;;;7.55;1.83;;;4.60;99.90;;;;;;4938064;29;20493;-79
2022/02/22 06:46:31;;;;;;;7.78;1.70;;;4.60;99.90;;;;;;4938111;29;20055;-80
2022/02/22 06:48:58;;;;;;;8.57;2.20;;;4.60;99.90;;;;;;4937888;29;20051;-80
2022/02/22 06:51:26;;;;;;;8.35;2.28;;;4.60;99.90;;;;;;4937692;29;20059;-80
2022/02/22 06:53:53;;;;;;;9.32;1.65;;;4.60;99.90;;;;;;4938300;29;20062;-79
2022/02/22 06:56:20;;;;;;;6.65;2.20;;;4.60;99.90;;;;;;4938503;29;20047;-80
2022/02/22 06:58:49;;;;;;;6.75;1.90;;;4.70;99.90;;;;;;4938257;29;20047;-80
2022/02/22 07:01:16;;;;;;;6.20;1.98;;;4.70;99.90;;;;;;4937285;29;20131;-78
2022/02/22 07:03:43;;;;;;;6.50;1.73;;;4.70;99.90;;;;;;4936967;29;20051;-78
2022/02/22 07:06:11;;;;;;;6.93;1.65;;;4.80;99.90;;;;;;4937105;29;20059;-78
2022/02/22 07:08:38;;;;;;;7.55;1.52;;;4.80;99.90;;;;;;4936725;29;20560;-79
2022/02/22 07:11:05;;;;;;;8.32;1.80;;;4.90;99.90;;;;;;4936901;29;20044;-81
2022/02/22 07:13:32;;;;;;;10.20;2.03;;;4.80;99.90;;;;;;4937138;29;20052;-79
2022/02/22 07:16:00;;;;;;;6.15;1.65;;;5.00;99.90;;;;;;4937063;29;20139;-78
2022/02/22 07:18:27;;;;;;;7.53;2.40;;;4.90;99.90;;;;;;4936814;29;20048;-80
2022/02/22 07:20:55;;;;;;;6.65;1.58;;;5.00;99.90;;;;;;4934972;29;20499;-80
2022/02/22 07:23:22;;;;;;;6.57;1.92;;;5.00;99.90;;;;;;4936626;29;20047;-79
2022/02/22 07:25:49;;;;;;;8.93;1.85;;;5.10;99.90;;;;;;4937541;29;20052;-78
2022/02/22 07:28:16;;;;;;;7.25;1.73;;;5.10;99.90;;;;;;4936581;29;20416;-80
2022/02/22 07:30:43;;;;;;;5.32;1.98;;;5.10;99.90;;;;;;4936226;29;20052;-79
2022/02/22 07:33:11;;;;;;;5.78;1.52;;;5.20;99.90;;;;;;4936395;29;20541;-78
2022/02/22 07:35:39;;;;;;;5.72;1.50;;;5.20;99.90;;;;;;4936403;29;20054;-78
2022/02/22 07:38:06;;;;;;;8.20;1.63;;;5.20;99.90;;;;;;4936407;29;20055;-78
2022/02/22 07:40:33;;;;;;;8.50;2.00;;;5.30;99.90;;;;;;4936311;29;20051;-80
2022/02/22 07:43:01;;;;;;;4.80;1.50;;;5.30;99.90;;;;;;4936195;29;20094;-79
2022/02/22 07:45:29;;;;;;;7.07;1.50;;;5.40;99.90;;;;;;4936069;29;20111;-78
2022/02/22 07:47:56;;;;;;;8.82;2.40;;;5.40;99.90;;;;;;4936068;29;20091;-78
2022/02/22 07:50:25;;;;;;;8.32;1.80;;;5.40;99.90;;;;;;4935816;29;20147;-80
2022/02/22 07:52:52;;;;;;;6.80;1.73;;;5.50;99.90;;;;;;4935456;29;20062;-77
2022/02/22 07:55:19;;;;;;;9.10;2.00;;;5.40;99.90;;;;;;4936200;29;20409;-78
2022/02/22 07:57:46;;;;;;;7.70;1.90;;;5.50;99.90;;;;;;4935967;29;20081;-79
2022/02/22 08:00:15;;;;;;;8.10;1.85;;;5.60;99.90;;;;;;4937269;29;20405;-80
2022/02/22 08:02:42;;;;;;;5.43;2.00;;;5.50;99.90;;;;;;4936076;29;20473;-79
2022/02/22 08:05:09;;;;;;;6.50;1.98;;;5.70;99.90;;;;;;4935822;29;20051;-79
2022/02/22 08:07:38;;;;;;;5.63;1.85;;;5.60;99.90;;;;;;4935940;29;20048;-77
2022/02/22 08:10:08;;;;;;;6.65;1.90;;;5.70;99.90;;;;;;4936636;29;20078;-78
2022/02/22 08:12:35;;;;;;;7.60;1.90;;;5.80;99.90;;;;;;4936867;29;20130;-78
2022/02/22 08:15:02;;;;;;;7.05;1.95;;;5.70;99.90;;;;;;4936782;29;20134;-79
2022/02/22 08:17:29;;;;;;;8.10;1.90;;;5.90;99.90;;;;;;4936158;29;20454;-79
2022/02/22 08:19:56;;;;;;;7.47;1.77;;;5.90;99.90;;;;;;4935790;29;20058;-77
2022/02/22 08:22:23;;;;;;;7.75;1.90;;;6.00;99.90;;;;;;4935692;29;20405;-77
2022/02/22 08:24:52;;;;;;;6.30;1.83;;;6.00;99.90;;;;;;4935424;29;20047;-77
2022/02/22 08:27:20;;;;;;;6.22;1.85;;;5.90;99.90;;;;;;4935667;29;20408;-79
2022/02/22 08:29:47;;;;;;;5.15;1.60;;;6.00;99.90;;;;;;4935556;29;20055;-79
2022/02/22 08:32:15;;;;;;;6.43;1.80;;;6.10;99.90;;;;;;4935732;29;20050;-78
2022/02/22 08:34:41;;;;;;;6.43;2.20;;;6.10;99.90;;;;;;4935734;29;20048;-79
2022/02/22 08:37:09;;;;;;;9.05;2.28;;;6.20;99.90;;;;;;4935654;29;20146;-78
2022/02/22 08:39:36;;;;;;;8.93;1.88;;;6.30;99.90;;;;;;4935493;29;20063;-81
2022/02/22 08:42:09;;;;;;;6.47;1.60;;;6.30;99.90;;;;;;4935657;29;20050;-80
2022/02/22 08:44:36;;;;;;;7.00;1.83;;;6.40;99.90;;;;;;4935421;29;20051;-78
2022/02/22 08:47:04;;;;;;;7.82;1.92;;;6.40;99.80;;;;;;4935605;29;20055;-79
2022/02/22 08:49:31;;;;;;;6.03;1.70;;;6.50;99.70;;;;;;4935344;29;20051;-79
2022/02/22 08:51:58;;;;;;;7.72;1.83;;;6.60;99.70;;;;;;4935691;29;20063;-80
2022/02/22 08:54:25;;;;;;;7.25;1.80;;;6.70;99.40;;;;;;4935430;29;20051;-79
2022/02/22 08:56:52;;;;;;;7.47;1.95;;;6.70;99.30;;;;;;4935470;29;20071;-79
2022/02/22 08:59:20;;;;;;;7.97;1.80;;;6.90;99.10;;;;;;4935439;29;20446;-79
2022/02/22 09:01:47;;;;;;;8.35;1.90;;;6.80;98.90;;;;;;4935493;29;20050;-77
2022/02/22 09:04:14;;;;;;;8.07;1.60;;;7.00;98.80;;;;;;4936726;29;20053;-80
2022/02/22 09:06:41;;;;;;;11.25;2.30;;;7.00;98.80;;;;;;4939066;29;20405;-77
2022/02/22 09:09:09;;;;;;;11.23;2.25;;;7.10;98.70;;;;;;4939142;29;20131;-78
2022/02/22 09:11:36;;;;;;;5.78;1.40;;;7.10;98.30;;;;;;4938953;29;20054;-79
2022/02/22 09:14:03;;;;;;;8.48;1.63;;;7.00;98.80;;;;;;4938934;29;20051;-79
2022/02/22 09:16:31;;;;;;;9.45;1.83;;;7.10;98.60;;;;;;4938916;29;20058;-77
2022/02/22 09:18:58;;;;;;;8.73;1.90;;;7.10;98.30;;;;;;4938870;29;20457;-80
2022/02/22 09:21:26;;;;;;;6.45;1.50;;;7.10;98.20;;;;;;4938579;29;20048;-80
2022/02/22 09:23:53;;;;;;;9.35;2.33;;;7.10;98.40;;;;;;4938734;29;20051;-78
2022/02/22 09:26:20;;;;;;;6.68;1.60;;;7.10;98.60;;;;;;4938802;29;20116;-77
2022/02/22 09:28:47;;;;;;;5.70;1.40;;;7.10;98.70;;;;;;4938631;29;20058;-76
2022/02/22 09:31:14;;;;;;;6.18;1.67;;;7.10;98.80;;;;;;4938425;29;20115;-78
2022/02/22 09:33:43;;;;;;;9.63;2.13;;;7.10;99.00;;;;;;4938342;29;20048;-79
2022/02/22 09:36:10;;;;;;;6.25;1.60;;;7.10;98.80;;;;;;4938749;29;20086;-78
2022/02/22 09:38:37;;;;;;;8.50;2.38;;;7.10;99.00;;;;;;4938643;29;20056;-80
2022/02/22 09:41:04;;;;;;;8.82;1.77;;;7.10;99.00;;;;;;4938505;29;20054;-80
2022/02/22 09:43:34;;;;;;;8.75;1.92;;;7.10;98.90;;;;;;4938471;29;20043;-80
2022/02/22 09:46:01;;;;;;;7.75;1.90;;;7.20;99.00;;;;;;4938454;29;20138;-80
2022/02/22 09:48:28;;;;;;;7.07;1.73;;;7.10;98.90;;;;;;4938112;29;20139;-80
2022/02/22 09:50:57;;;;;;;8.38;1.92;;;7.10;99.00;;;;;;4938411;29;20058;-77
2022/02/22 09:53:24;;;;;;;8.02;1.67;;;7.10;99.10;;;;;;4938254;29;20469;-80
2022/02/22 09:55:51;;;;;;;6.07;1.70;;;7.10;99.20;;;;;;4938149;29;20051;-80
2022/02/22 09:58:18;;;;;;;7.15;1.77;;;7.10;99.40;;;;;;4938033;29;20050;-80
2022/02/22 10:00:45;;;;;;;7.00;1.75;;;7.10;99.30;;;;;;4937943;29;20512;-79
2022/02/22 10:03:19;;;;;;;6.25;1.83;;;7.10;99.20;;;;;;4938319;29;20429;-79
2022/02/22 10:05:56;;;;;;;7.95;1.77;;;7.20;99.20;;;;;;4938070;29;20055;-79
2022/02/22 10:08:29;;;;;;;8.13;1.67;;;7.20;99.40;;;;;;4937794;29;20486;-79
2022/02/22 10:11:05;;;;;;;7.28;1.52;;;7.20;99.40;;;;;;4937809;29;20056;-80
2022/02/22 10:13:33;;;;;;;7.38;1.80;;;7.30;99.00;;;;;;4937361;29;20051;-77
2022/02/22 10:16:05;;;;;;;6.18;1.75;;;7.30;98.90;;;;;;4936854;29;20493;-78
2022/02/22 10:18:32;;;;;;;10.52;1.73;;;7.40;98.30;;;;;;4937754;29;20058;-77
2022/02/22 10:21:02;;;;;;;5.45;1.50;;;7.30;98.60;;;;;;4937548;29;20047;-78
2022/02/22 10:23:33;;;;;;;4.70;1.33;;;7.40;98.30;;;;;;4923221;29;20072;-78
2022/02/22 10:26:01;;;;;;;6.45;1.48;;;7.50;98.20;;;;;;4931162;29;20062;-79
2022/02/22 10:28:28;;;;;;;6.72;1.67;;;7.60;97.90;;;;;;4916213;29;20429;-77
2022/02/22 10:30:56;;;;;;;10.65;1.98;;;7.60;96.90;;;;;;4922432;29;20056;-81
2022/02/22 10:33:25;;;;;;;8.43;1.67;;;7.70;96.70;;;;;;4934939;29;20553;-76
2022/02/22 10:35:54;;;;;;;5.43;1.10;;;7.70;96.70;;;;;;4934588;29;20061;-81
2022/02/22 10:38:26;;;;;;;9.35;1.58;;;7.80;96.90;;;;;;4935007;29;20047;-80
2022/02/22 10:41:01;;;;;;;8.25;1.92;;;7.90;96.90;;;;;;4935008;29;20127;-80
2022/02/22 10:43:31;;;;;;;6.63;1.75;;;8.20;96.70;;;;;;4934914;29;20062;-80
2022/02/22 10:46:00;;;;;;;7.53;1.40;;;8.20;96.10;;;;;;4934561;29;20047;-80
2022/02/22 10:48:36;;;;;;;8.02;1.92;;;8.30;95.10;;;;;;4934095;29;20056;-79
2022/02/22 10:51:07;;;;;;;6.82;1.55;;;8.40;95.10;;;;;;4934064;29;20051;-80
2022/02/22 10:53:39;;;;;;;5.63;1.40;;;8.40;95.20;;;;;;4934433;29;20134;-78
2022/02/22 10:56:08;;;;;;;6.72;1.60;;;8.50;94.90;;;;;;4934629;29;20047;-79
2022/02/22 10:58:39;;;;;;;6.03;1.65;;;8.60;94.90;;;;;;4934385;29;20051;-76
2022/02/22 11:01:09;;;;;;;6.50;1.48;;;8.60;94.60;;;;;;4934371;29;20056;-80
2022/02/22 11:03:36;;;;;;;8.10;1.70;;;8.70;94.40;;;;;;4934294;29;20051;-78
2022/02/22 11:06:04;;;;;;;5.88;1.42;;;8.70;95.00;;;;;;4934443;29;20052;-78
2022/02/22 11:08:33;;;;;;;8.25;2.03;;;8.80;94.90;;;;;;4932250;29;20058;-79
2022/02/22 11:11:06;;;;;;;6.88;1.52;;;8.80;94.90;;;;;;4933988;29;20107;-79
2022/02/22 11:13:34;;;;;;;8.38;1.77;;;8.80;94.20;;;;;;4933886;29;20054;-80
2022/02/22 11:16:13;;;;;;;7.90;2.00;;;8.80;94.00;;;;;;4934156;29;20485;-79
2022/02/22 11:18:47;;;;;;;6.07;1.80;;;8.80;94.70;;;;;;4934920;29;20052;-78
2022/02/22 11:21:16;;;;;;;6.70;1.60;;;8.70;94.90;;;;;;4934213;29;20399;-78
2022/02/22 11:23:43;;;;;;;8.70;2.00;;;8.70;94.40;;;;;;4933302;29;20043;-78
2022/02/22 11:26:15;;;;;;;6.78;1.90;;;8.70;94.50;;;;;;4933259;29;20051;-77
2022/02/22 11:28:46;;;;;;;7.32;1.80;;;8.60;94.80;;;;;;4928484;29;20504;-79
2022/02/22 11:31:16;;;;;;;7.63;1.85;;;8.60;95.00;;;;;;4934143;29;20063;-78
2022/02/22 11:33:46;;;;;;;8.93;2.10;;;8.60;95.30;;;;;;4933831;29;20052;-78
2022/02/22 11:36:27;;;;;;;7.72;2.10;;;8.50;95.30;;;;;;4933546;29;20047;-80
2022/02/22 11:38:55;;;;;;;8.95;2.35;;;8.60;95.30;;;;;;4933779;29;20054;-79
2022/02/22 11:41:26;;;;;;;7.47;1.60;;;8.60;95.30;;;;;;4933580;29;20055;-77
2022/02/22 11:43:58;;;;;;;6.97;2.03;;;8.60;94.80;;;;;;4930529;29;20052;-77
2022/02/22 11:46:44;;;;;;;7.43;1.85;;;8.60;95.10;;;;;;4914696;29;20493;-79
2022/02/22 11:49:21;;;;;;;6.07;1.85;;;8.70;95.70;;;;;;4927034;29;20572;-77
2022/02/22 11:51:52;;;;;;;10.45;1.83;;;8.70;95.90;;;;;;4933518;29;20066;-77
2022/02/22 11:54:23;;;;;;;7.78;1.63;;;8.80;96.30;;;;;;4933738;29;20051;-77
2022/02/22 11:57:05;;;;;;;8.77;1.83;;;8.80;96.30;;;;;;4933877;29;20051;-79
2022/02/22 11:59:47;;;;;;;5.47;1.50;;;8.80;96.30;;;;;;4933293;29;20048;-81
2022/02/22 12:02:26;;;;;;;12.30;5.05;;;8.80;96.20;;;;;;4932717;29;20047;-79
2022/02/22 12:04:54;;;;;;;13.45;3.88;;;8.90;96.40;;;;;;4933482;29;20051;-77
2022/02/22 12:07:27;;;;;;;11.77;5.30;;;8.90;96.70;;;;;;4930906;29;20055;-77
2022/02/22 12:09:56;;;;;;;5.43;1.48;;;9.00;96.90;;;;;;4933198;29;20067;-79
2022/02/22 12:12:26;;;;;;;6.50;1.30;;;9.00;97.10;;;;;;4933103;29;20051;-81
2022/02/22 12:14:56;;;;;;;4.80;1.50;;;8.90;97.40;;;;;;4932988;29;20059;-78
2022/02/22 12:17:23;;;;;;;5.47;1.30;;;8.90;97.70;;;;;;4933110;29;20062;-78
2022/02/22 12:19:51;;;;;;;9.10;1.75;;;9.00;97.90;;;;;;4933116;29;20474;-79
2022/02/22 12:22:24;;;;;;;8.07;1.63;;;9.10;98.00;;;;;;4932645;29;20417;-81
2022/02/22 12:24:59;;;;;;;7.57;1.83;;;9.10;97.90;;;;;;4933257;29;20048;-76
2022/02/22 12:27:29;;;;;;;8.02;2.03;;;9.20;97.40;;;;;;4932606;29;20071;-78
2022/02/22 12:29:56;;;;;;;5.50;1.52;;;9.20;97.40;;;;;;4933112;29;20051;-80
2022/02/22 12:32:24;;;;;;;5.53;1.60;;;9.10;97.50;;;;;;4932914;29;20062;-81
2022/02/22 12:34:53;;;;;;;7.82;1.77;;;9.20;97.50;;;;;;4932408;29;20056;-78
2022/02/22 12:37:23;;;;;;;7.60;1.85;;;9.30;97.30;;;;;;4932858;29;20052;-80
2022/02/22 12:39:51;;;;;;;7.93;2.08;;;9.30;96.70;;;;;;4935433;29;20114;-80
2022/02/22 12:42:19;;;;;;;9.40;1.98;;;9.30;96.90;;;;;;4936977;29;20062;-78
2022/02/22 12:44:50;;;;;;;10.48;2.30;;;9.30;96.50;;;;;;4936985;29;20475;-78
2022/02/22 12:47:18;;;;;;;10.50;2.05;;;9.40;96.30;;;;;;4937276;29;20044;-78
2022/02/22 12:49:46;;;;;;;6.45;1.83;;;9.40;96.40;;;;;;4936703;29;20138;-79
2022/02/22 12:52:15;;;;;;;8.40;1.90;;;9.40;95.90;;;;;;4936928;29;20142;-79
2022/02/22 12:54:43;;;;;;;9.98;2.40;;;9.50;95.80;;;;;;4936613;29;20063;-76
2022/02/22 12:57:10;;;;;;;8.00;1.92;;;9.50;94.70;;;;;;4936799;29;20486;-78
2022/02/22 12:59:41;;;;;;;12.70;2.20;;;9.50;94.80;;;;;;4936549;29;20059;-81
2022/02/22 13:02:10;;;;;;;9.40;1.80;;;9.50;94.40;;;;;;4936631;29;20612;-79
2022/02/22 13:04:39;;;;;;;12.60;2.42;;;9.50;94.60;;;;;;4936409;29;20131;-78
2022/02/22 13:07:11;;;;;;;7.18;1.98;;;9.50;94.40;;;;;;4934457;29;20485;-80
2022/02/22 13:09:38;;;;;;;7.20;1.90;;;9.50;94.20;;;;;;4935931;29;20133;-80
2022/02/22 13:12:08;;;;;;;9.15;1.95;;;9.60;93.50;;;;;;4936004;29;20055;-79
2022/02/22 13:14:39;;;;;;;8.98;2.10;;;9.60;93.70;;;;;;4936085;29;20054;-78
2022/02/22 13:17:09;;;;;;;11.65;2.30;;;9.70;93.80;;;;;;4936484;29;20078;-78
2022/02/22 13:19:39;;;;;;;9.65;2.30;;;9.80;93.40;;;;;;4936312;29;20208;-78
2022/02/22 13:22:09;;;;;;;9.82;1.88;;;9.90;92.70;;;;;;4935300;29;20052;-79
2022/02/22 13:24:39;;;;;;;8.63;1.90;;;9.80;92.90;;;;;;4920051;29;20052;-80
2022/02/22 13:27:08;;;;;;;6.82;1.90;;;9.90;93.10;;;;;;4921277;29;20055;-79
2022/02/22 13:29:35;;;;;;;9.25;2.00;;;10.00;92.70;;;;;;4936244;29;20515;-78
2022/02/22 13:32:07;;;;;;;10.45;1.88;;;9.90;93.00;;;;;;4936078;29;20144;-78
2022/02/22 13:34:45;;;;;;;9.48;2.50;;;9.90;93.30;;;;;;4935807;29;20051;-78
2022/02/22 13:37:13;;;;;;;9.18;2.50;;;9.80;93.40;;;;;;4936067;29;20062;-79
2022/02/22 13:39:40;;;;;;;7.72;2.67;;;9.70;93.70;;;;;;4935816;29;20504;-80
2022/02/22 13:42:07;;;;;;;11.65;3.47;;;9.80;93.70;;;;;;4936100;29;20142;-77
2022/02/22 13:44:37;;;;;;;10.05;2.00;;;9.80;93.40;;;;;;4935883;29;20051;-79
2022/02/22 13:47:06;;;;;;;9.70;2.55;;;9.70;93.80;;;;;;4935342;29;20048;-77
2022/02/22 13:49:45;;;;;;;10.77;2.40;;;9.70;94.00;;;;;;4935648;29;20143;-78
2022/02/22 13:52:13;;;;;;;10.50;2.90;;;9.70;94.30;;;;;;4935932;29;20060;-79
2022/02/22 13:54:48;;;;;;;10.57;2.58;;;9.60;94.20;;;;;;4938026;29;20126;-79
2022/02/22 13:57:15;;;;;;;8.40;2.30;;;9.50;94.60;;;;;;4937411;29;20052;-79
2022/02/22 13:59:45;;;;;;;10.70;2.95;;;9.50;94.70;;;;;;4937666;29;20055;-79
2022/02/22 14:02:25;;;;;;;11.57;2.38;;;9.50;94.90;;;;;;4937314;29;20501;-79
2022/02/22 14:04:53;;;;;;;12.38;2.50;;;9.50;94.80;;;;;;4936000;29;20058;-79
2022/02/22 14:07:21;;;;;;;7.47;2.45;;;9.50;94.60;;;;;;4934556;29;20059;-78
2022/02/22 14:09:49;;;;;;;10.07;2.00;;;9.40;94.60;;;;;;4935294;29;20054;-78
2022/02/22 14:12:17;;;;;;;11.05;2.50;;;9.30;94.50;;;;;;4935388;29;20066;-79
2022/02/22 14:14:44;;;;;;;9.98;2.38;;;9.30;94.50;;;;;;4935828;29;20079;-76
2022/02/22 14:17:12;;;;;;;8.50;2.25;;;9.20;94.40;;;;;;4943142;29;20052;-77
2022/02/22 14:19:39;;;;;;;13.38;2.28;;;9.20;94.50;;;;;;4935651;29;20482;-79
2022/02/22 14:22:08;;;;;;;11.57;2.17;;;9.20;94.40;;;;;;4934949;29;20139;-78
2022/02/22 14:24:35;;;;;;;11.65;2.40;;;9.10;94.60;;;;;;4935962;29;20081;-78
2022/02/22 14:27:02;;;;;;;9.23;2.63;;;9.10;94.40;;;;;;4937275;29;20130;-79
2022/02/22 14:29:29;;;;;;;10.32;2.20;;;9.10;94.60;;;;;;4935807;29;20052;-79
2022/02/22 14:31:56;;;;;;;8.20;2.65;;;9.10;94.50;;;;;;4934910;29;20044;-76
2022/02/22 14:34:23;;;;;;;9.35;2.17;;;9.20;94.00;;;;;;4934774;29;20302;-78
2022/02/22 14:36:50;;;;;;;7.93;2.22;;;9.10;93.90;;;;;;4935021;29;20082;-78
2022/02/22 14:39:19;;;;;;;10.52;2.22;;;9.10;93.90;;;;;;4934917;29;20107;-78
2022/02/22 14:41:46;;;;;;;9.30;2.00;;;9.10;93.60;;;;;;4934945;29;20082;-78
2022/02/22 14:44:13;;;;;;;7.63;2.30;;;9.10;93.60;;;;;;4934514;29;20061;-79
2022/02/22 14:46:40;;;;;;;10.40;2.50;;;9.10;93.60;;;;;;4934506;29;20062;-80
2022/02/22 14:49:07;;;;;;;9.13;2.25;;;9.20;93.50;;;;;;4934853;29;20063;-79
2022/02/22 14:51:34;;;;;;;13.43;2.38;;;9.30;93.50;;;;;;4934254;29;20139;-79
2022/02/22 14:54:02;;;;;;;11.20;2.35;;;9.30;93.00;;;;;;4931217;29;20464;-79
2022/02/22 14:56:31;;;;;;;11.55;2.45;;;9.30;93.30;;;;;;4934071;29;20055;-79
2022/02/22 14:58:58;;;;;;;8.38;2.08;;;9.30;93.20;;;;;;4934164;29;20052;-79
2022/02/22 15:01:26;;;;;;;8.48;2.40;;;9.30;93.10;;;;;;4934196;29;20135;-79
2022/02/22 15:03:53;;;;;;;9.88;2.25;;;9.30;93.10;;;;;;4934695;29;20063;-78
2022/02/22 15:06:20;;;;;;;9.90;2.53;;;9.30;92.90;;;;;;4934358;29;20533;-77
2022/02/22 15:08:48;;;;;;;10.93;2.40;;;9.30;92.90;;;;;;4932269;29;20047;-79
2022/02/22 15:11:16;;;;;;;8.75;1.90;;;9.30;92.70;;;;;;4933829;29;20066;-77
2022/02/22 15:13:45;;;;;;;10.38;2.50;;;9.20;92.80;;;;;;4934550;29;20134;-78
2022/02/22 15:16:12;;;;;;;13.20;2.58;;;9.20;92.90;;;;;;4933859;29;20431;-78
2022/02/22 15:18:39;;;;;;;12.23;2.20;;;9.10;92.90;;;;;;4933629;29;20052;-77
2022/02/22 15:21:09;;;;;;;11.52;2.55;;;9.10;92.60;;;;;;4933978;29;20570;-79
2022/02/22 15:23:37;;;;;;;11.13;2.03;;;9.10;92.70;;;;;;4934526;29;20087;-77
2022/02/22 15:26:05;;;;;;;9.25;2.63;;;9.10;92.90;;;;;;4934221;29;20087;-78
2022/02/22 15:28:33;;;;;;;26.73;11.13;;;9.00;92.90;;;;;;4934082;29;20123;-78
2022/02/22 15:31:02;;;;;;;23.67;7.47;;;9.00;92.40;;;;;;4934278;29;20062;-77
2022/02/22 15:33:30;;;;;;;12.05;3.20;;;9.00;92.40;;;;;;4933765;29;20525;-79
2022/02/22 15:35:57;;;;;;;12.57;2.92;;;9.00;92.40;;;;;;4933798;29;20054;-77
2022/02/22 15:38:24;;;;;;;14.20;3.08;;;9.00;92.20;;;;;;4933753;29;20055;-78
2022/02/22 15:40:52;;;;;;;14.00;2.85;;;9.00;92.10;;;;;;4934040;29;20131;-80
2022/02/22 15:43:21;;;;;;;15.27;2.72;;;9.00;92.20;;;;;;4934038;29;20047;-77
2022/02/22 15:45:48;;;;;;;12.88;2.63;;;9.10;92.10;;;;;;4933554;29;20500;-76
2022/02/22 15:48:18;;;;;;;13.45;3.25;;;9.00;92.40;;;;;;4933166;29;20134;-77
2022/02/22 15:50:47;;;;;;;12.55;3.13;;;9.00;92.20;;;;;;4933587;29;20516;-79
2022/02/22 15:53:15;;;;;;;11.35;2.65;;;9.00;92.20;;;;;;4933463;29;20090;-79
2022/02/22 15:55:43;;;;;;;10.95;2.70;;;9.00;92.30;;;;;;4933268;29;20052;-79
2022/02/22 15:58:10;;;;;;;11.85;2.50;;;9.00;92.30;;;;;;4933352;29;20062;-78
2022/02/22 16:00:37;;;;;;;10.48;2.75;;;9.00;92.30;;;;;;4932862;29;20178;-77
2022/02/22 16:03:04;;;;;;;12.45;3.03;;;9.00;92.40;;;;;;4933515;29;20638;-79
2022/02/22 16:05:32;;;;;;;13.73;2.95;;;9.00;92.30;;;;;;4933220;29;20545;-76
2022/02/22 16:07:59;;;;;;;12.48;2.75;;;8.90;92.50;;;;;;4931810;29;20138;-80
2022/02/22 16:10:27;;;;;;;12.25;2.70;;;8.90;92.60;;;;;;4934167;29;20084;-78
2022/02/22 16:12:55;;;;;;;13.13;2.75;;;8.90;92.60;;;;;;4933595;29;20150;-78
2022/02/22 16:15:22;;;;;;;13.57;2.55;;;8.90;92.50;;;;;;4933202;29;20047;-79
2022/02/22 16:17:49;;;;;;;11.68;2.70;;;8.90;92.40;;;;;;4932511;29;20401;-77
2022/02/22 16:20:17;;;;;;;12.35;2.67;;;8.90;92.50;;;;;;4932100;29;20064;-78
2022/02/22 16:22:46;;;;;;;14.90;2.70;;;8.90;92.60;;;;;;4932918;29;20058;-79
2022/02/22 16:25:14;;;;;;;9.90;2.40;;;8.90;92.60;;;;;;4932769;29;20099;-77
2022/02/22 16:27:41;;;;;;;9.82;2.65;;;8.90;92.60;;;;;;4933388;29;20059;-78
2022/02/22 16:30:09;;;;;;;13.20;2.78;;;8.90;92.80;;;;;;4933000;29;20052;-78
2022/02/22 16:32:36;;;;;;;13.32;2.85;;;8.80;92.70;;;;;;4932984;29;20138;-76
2022/02/22 16:35:05;;;;;;;11.00;2.90;;;8.80;92.60;;;;;;4932822;29;20043;-79
2022/02/22 16:37:34;;;;;;;14.07;2.67;;;8.80;92.70;;;;;;4933463;29;20055;-78
2022/02/22 16:40:02;;;;;;;12.55;2.83;;;8.80;92.70;;;;;;4932956;29;20058;-78
2022/02/22 16:42:29;;;;;;;14.23;3.00;;;8.90;92.90;;;;;;4932921;29;20450;-78
2022/02/22 16:44:56;;;;;;;13.25;2.67;;;8.80;92.90;;;;;;4931888;29;20062;-78
2022/02/22 16:47:23;;;;;;;10.25;2.28;;;8.80;92.70;;;;;;4926459;29;20471;-79
2022/02/22 16:49:51;;;;;;;14.13;3.53;;;8.80;92.80;;;;;;4926153;29;20103;-80
2022/02/22 16:52:18;;;;;;;11.13;2.85;;;8.80;92.70;;;;;;4929743;29;20127;-80
2022/02/22 16:54:45;;;;;;;11.23;2.38;;;8.80;92.90;;;;;;4931403;29;20130;-78
2022/02/22 16:57:13;;;;;;;12.57;2.75;;;8.80;92.60;;;;;;4932978;29;20060;-80
2022/02/22 16:59:40;;;;;;;12.93;2.60;;;8.80;92.60;;;;;;4932951;29;20098;-78
2022/02/22 17:02:08;;;;;;;11.35;2.92;;;8.80;92.60;;;;;;4933216;29;20131;-79
2022/02/22 17:04:35;;;;;;;13.35;2.60;;;8.90;92.50;;;;;;4932383;29;20054;-78
2022/02/22 17:07:02;;;;;;;10.50;2.45;;;8.80;92.70;;;;;;4931559;29;20063;-76
2022/02/22 17:09:29;;;;;;;13.02;2.53;;;8.80;92.70;;;;;;4932764;29;20139;-76
2022/02/22 17:11:56;;;;;;;13.85;2.40;;;8.90;92.70;;;;;;4930369;29;20058;-76
2022/02/22 17:14:24;;;;;;;10.50;3.35;;;8.80;92.80;;;;;;4932668;29;20070;-78
2022/02/22 17:16:51;;;;;;;10.30;2.55;;;8.80;92.90;;;;;;4932268;29;20050;-78
2022/02/22 17:19:19;;;;;;;12.10;2.70;;;8.80;92.90;;;;;;4932778;29;20061;-77
2022/02/22 17:21:46;;;;;;;11.02;2.78;;;8.80;92.90;;;;;;4932869;29;20052;-79
2022/02/22 17:24:13;;;;;;;12.25;2.78;;;8.80;93.10;;;;;;4932590;29;20060;-78
2022/02/22 17:26:40;;;;;;;14.48;2.58;;;8.80;93.10;;;;;;4937150;29;20412;-80
2022/02/22 17:29:12;;;;;;;11.32;2.92;;;8.70;93.20;;;;;;4936294;29;20056;-78
2022/02/22 17:31:41;;;;;;;10.32;2.55;;;8.70;93.30;;;;;;4936554;29;20056;-79
2022/02/22 17:34:08;;;;;;;13.00;2.60;;;8.80;93.40;;;;;;4936393;29;20066;-78
2022/02/22 17:36:36;;;;;;;16.15;3.85;;;8.70;93.50;;;;;;4936322;29;20054;-77
2022/02/22 17:39:04;;;;;;;14.15;2.80;;;8.70;93.60;;;;;;4936050;29;20044;-79
2022/02/22 17:41:31;;;;;;;12.68;2.60;;;8.80;93.70;;;;;;4935663;29;20051;-77
2022/02/22 17:43:58;;;;;;;13.52;3.03;;;8.70;93.70;;;;;;4935451;29;20051;-76
2022/02/22 17:46:25;;;;;;;13.95;3.10;;;8.70;93.80;;;;;;4935838;29;20054;-80